Time;durP1;ratioP1;P1;durP2;ratioP2;P2;SDS_P1;SDS_P2;PMS_P1;PMS_P2;Temp;Humidity;BMP_temperature;BMP_pressure;BME280_temperature;BME280_humidity;BME280_pressure;Samples;Min_cycle;Max_cycle;Signal;HPM_P1;HPM_P2
2021/06/10 08:09:07;;;;;;;6.60;6.10;;;;;;;19.67;68.21;100606.06;5090772;27;102277;-71
2021/06/10 08:11:48;;;;;;;6.97;6.37;;;;;;;19.67;68.21;100614.34;5091504;27;102586;-72
2021/06/10 08:14:16;;;;;;;6.75;6.15;;;;;;;19.68;68.34;100613.19;5094852;27;104205;-71
2021/06/10 08:16:43;;;;;;;7.43;6.63;;;;;;;19.68;68.26;100602.97;5087758;27;102528;-72
2021/06/10 08:19:10;;;;;;;7.00;6.38;;;;;;;19.68;68.17;100599.41;5091005;27;102390;-72
2021/06/10 08:21:36;;;;;;;6.63;6.13;;;;;;;19.69;68.08;100603.78;5095926;27;102462;-72
2021/06/10 08:24:19;;;;;;;7.18;6.57;;;;;;;19.70;68.04;100605.41;5096363;27;104067;-72
2021/06/10 08:26:47;;;;;;;6.90;6.25;;;;;;;19.70;67.97;100619.22;5044084;27;102440;-72
2021/06/10 08:29:13;;;;;;;7.10;6.50;;;;;;;19.70;68.24;100605.41;5048410;27;103104;-72
2021/06/10 08:31:43;;;;;;;6.35;5.85;;;;;;;19.71;67.88;100611.72;5052576;27;102353;-72
2021/06/10 08:34:11;;;;;;;6.95;6.30;;;;;;;19.71;68.17;100609.78;5086579;27;104104;-71
2021/06/10 08:36:38;;;;;;;6.43;5.93;;;;;;;19.71;68.19;100608.97;5091691;27;103506;-72
2021/06/10 08:39:28;;;;;;;6.55;6.05;;;;;;;19.73;68.01;100610.25;5096569;27;102388;-72
2021/06/10 08:41:56;;;;;;;6.18;5.57;;;;;;;19.73;68.20;100604.72;5029566;27;102662;-71
2021/06/10 08:44:42;;;;;;;6.63;6.03;;;;;;;19.72;67.87;100605.84;5020746;27;105091;-71
2021/06/10 08:47:10;;;;;;;6.55;5.95;;;;;;;19.73;67.85;100607.50;5092333;27;106119;-72
2021/06/10 08:49:37;;;;;;;7.13;6.50;;;;;;;19.73;67.96;100609.44;5089785;27;102778;-72
2021/06/10 08:52:06;;;;;;;6.70;6.10;;;;;;;19.73;67.85;100607.50;5093068;27;104662;-72
2021/06/10 08:54:34;;;;;;;6.18;5.68;;;;;;;19.73;67.65;100613.03;5088447;27;103882;-72
2021/06/10 08:57:26;;;;;;;6.35;5.85;;;;;;;19.73;67.99;100613.03;5096221;27;102394;-72
2021/06/10 08:59:52;;;;;;;6.03;5.47;;;;;;;19.74;68.02;100606.34;5093402;27;102695;-72
2021/06/10 09:02:18;;;;;;;6.32;5.82;;;;;;;19.74;67.99;100614.63;5094138;27;102577;-72
2021/06/10 09:04:45;;;;;;;6.20;5.70;;;;;;;19.74;68.06;100606.34;5089780;27;103890;-72
2021/06/10 09:07:11;;;;;;;6.40;5.85;;;;;;;19.75;67.78;100607.16;5089598;27;102311;-71
2021/06/10 09:09:41;;;;;;;6.50;5.90;;;;;;;19.74;67.76;100606.34;5078690;27;102739;-71
2021/06/10 09:12:09;;;;;;;5.50;5.10;;;;;;;19.75;67.72;100607.16;5075012;27;102520;-71
2021/06/10 09:17:32;;;;;;;7.43;6.65;;;;;;;19.73;67.66;100612.22;5063019;27;104284;-71
2021/06/10 09:19:59;;;;;;;6.05;5.55;;;;;;;19.74;67.87;100603.59;5059833;27;102477;-71
2021/06/10 09:22:27;;;;;;;6.53;5.90;;;;;;;19.74;68.14;100606.34;5055409;27;103971;-71
2021/06/10 09:25:07;;;;;;;6.20;5.70;;;;;;;19.74;67.87;100602.78;5058125;27;102200;-71
2021/06/10 09:27:34;;;;;;;6.38;5.78;;;;;;;19.74;67.88;100589.78;5058519;27;103529;-71
2021/06/10 09:30:01;;;;;;;6.22;5.60;;;;;;;19.74;67.77;100600.81;5059717;27;102850;-71
2021/06/10 09:32:30;;;;;;;5.90;5.40;;;;;;;19.73;67.58;100599.22;5053230;27;103871;-71
2021/06/10 09:35:00;;;;;;;6.07;5.57;;;;;;;19.72;68.08;100597.56;5055382;27;102680;-71
2021/06/10 09:37:32;;;;;;;5.90;5.47;;;;;;;19.72;68.21;100586.53;5051497;27;102449;-71
2021/06/10 09:40:00;;;;;;;6.18;5.63;;;;;;;19.73;67.98;100595.66;5060260;27;102286;-71
2021/06/10 09:42:29;;;;;;;6.25;5.75;;;;;;;19.71;68.16;100582.16;5053329;27;102724;-71
2021/06/10 09:44:58;;;;;;;5.60;5.20;;;;;;;19.72;68.20;100581.00;5058040;27;102108;-71
2021/06/10 09:47:47;;;;;;;5.95;5.53;;;;;;;19.71;68.12;100579.41;5070643;27;102151;-71
2021/06/10 09:50:36;;;;;;;5.80;5.30;;;;;;;19.71;68.27;100576.63;5057610;27;102879;-71
2021/06/10 09:53:06;;;;;;;6.38;5.70;;;;;;;19.71;67.71;100571.13;5057290;27;103915;-71
2021/06/10 09:55:40;;;;;;;6.40;5.95;;;;;;;19.71;67.94;100567.56;5054977;27;103376;-71
2021/06/10 09:58:30;;;;;;;6.35;5.72;;;;;;;19.69;68.23;100565.13;5052920;27;102223;-72
2021/06/10 10:01:00;;;;;;;6.43;5.93;;;;;;;19.70;68.14;100572.28;5055964;27;102580;-71
2021/06/10 10:03:30;;;;;;;5.50;5.10;;;;;;;19.69;67.83;100570.66;5057125;27;103028;-71
2021/06/10 10:05:59;;;;;;;8.85;5.85;;;;;;;19.68;68.17;100569.03;5056989;27;103354;-71
2021/06/10 10:08:32;;;;;;;5.90;5.43;;;;;;;19.68;68.23;100569.81;5057435;27;103417;-71
2021/06/10 10:11:01;;;;;;;5.90;5.50;;;;;;;19.67;68.34;100567.41;5064012;27;102628;-71
2021/06/10 10:13:28;;;;;;;;;;;;;;;19.66;67.79;100566.63;5059869;27;103980;-71
2021/06/10 10:15:57;;;;;;;6.03;5.53;;;;;;;19.67;68.04;100567.41;5053764;27;103073;-71
2021/06/10 10:18:24;;;;;;;6.47;5.97;;;;;;;19.66;68.26;100565.81;5049214;27;103288;-71
2021/06/10 10:20:52;;;;;;;6.47;5.97;;;;;;;19.66;68.30;100560.28;5061056;27;102251;-71
2021/06/10 10:23:22;;;;;;;6.83;6.13;;;;;;;19.65;68.15;100558.66;5053568;27;103845;-71
2021/06/10 10:25:55;;;;;;;5.97;5.43;;;;;;;19.64;68.08;100562.56;5061657;27;102322;-71
2021/06/10 10:28:29;;;;;;;6.63;6.13;;;;;;;19.64;67.88;100554.28;5043054;27;102061;-71
2021/06/10 10:30:57;;;;;;;5.45;5.05;;;;;;;19.64;68.38;100554.28;5048078;27;102396;-71
2021/06/10 10:33:25;;;;;;;6.32;5.82;;;;;;;19.64;67.91;100546.00;5043726;27;103695;-71
2021/06/10 10:35:58;;;;;;;5.82;5.43;;;;;;;19.64;68.27;100551.53;5049140;27;102458;-71
2021/06/10 10:38:32;;;;;;;5.95;5.55;;;;;;;19.64;68.33;100554.28;5043682;27;102274;-71
2021/06/10 10:41:04;;;;;;;6.03;5.50;;;;;;;19.64;68.10;100557.84;5045492;27;102524;-71
2021/06/10 10:43:39;;;;;;;5.38;4.97;;;;;;;19.64;68.20;100546.00;5040172;27;103986;-71
2021/06/10 10:46:10;;;;;;;6.03;5.57;;;;;;;19.64;68.14;100551.53;5041095;27;102471;-72
2021/06/10 10:48:43;;;;;;;5.40;5.00;;;;;;;19.64;68.18;100551.53;5038850;27;102586;-71
2021/06/10 10:51:38;;;;;;;5.43;5.03;;;;;;;19.63;68.21;100549.91;5036643;27;102621;-72
2021/06/10 10:54:26;;;;;;;6.10;5.60;;;;;;;19.64;68.45;100554.28;5046359;27;103824;-71
2021/06/10 10:56:55;;;;;;;5.47;5.07;;;;;;;19.64;68.53;100557.03;5041428;27;102343;-71
2021/06/10 10:59:22;;;;;;;38.13;6.72;;;;;;;19.62;68.46;100554.63;5035026;27;102493;-70
2021/06/10 11:02:09;;;;;;;5.40;5.00;;;;;;;19.62;68.11;100540.00;5043865;27;102563;-71
2021/06/10 11:04:50;;;;;;;5.57;5.18;;;;;;;19.64;68.45;100551.53;5042117;27;103826;-71
2021/06/10 11:08:10;;;;;;;5.22;4.82;;;;;;;19.63;68.13;100542.44;5037004;27;103538;-71
2021/06/10 11:11:02;;;;;;;5.50;5.10;;;;;;;19.64;68.21;100540.47;5040378;27;102503;-71
2021/06/10 11:13:31;;;;;;;5.40;5.00;;;;;;;19.64;68.32;100541.28;5039321;27;105252;-71
2021/06/10 11:16:01;;;;;;;5.50;5.10;;;;;;;19.64;68.29;100540.47;5038610;27;103988;-71
2021/06/10 11:18:46;;;;;;;5.32;4.93;;;;;;;19.64;68.41;100527.47;5041665;27;102239;-72
2021/06/10 11:21:29;;;;;;;5.45;4.60;;;;;;;19.65;68.00;100539.31;5039238;27;102303;-72
2021/06/10 11:24:14;;;;;;;5.45;5.05;;;;;;;19.64;68.18;100535.75;5042194;27;102355;-74
2021/06/10 11:27:03;;;;;;;5.68;5.28;;;;;;;19.64;68.42;100523.91;5045519;27;104023;-72
2021/06/10 11:29:31;;;;;;;5.10;4.70;;;;;;;19.66;68.55;100538.19;5036510;27;102474;-72
2021/06/10 11:32:26;;;;;;;5.40;5.00;;;;;;;19.65;68.62;100531.03;5038181;27;102718;-72
2021/06/10 11:35:05;;;;;;;5.55;5.15;;;;;;;19.65;68.41;100525.53;5039411;27;102782;-72
2021/06/10 11:37:33;;;;;;;;;;;;;;;19.64;68.77;100527.47;5035495;27;104377;-72
2021/06/10 11:40:00;;;;;;;5.57;5.18;;;;;;;19.65;68.20;100522.75;5044121;27;102319;-72
2021/06/10 11:42:29;;;;;;;5.50;5.00;;;;;;;19.64;68.72;100523.91;5048811;27;102899;-72
2021/06/10 11:44:56;;;;;;;5.23;4.83;;;;;;;19.63;68.45;100517.59;5036772;27;102482;-72
2021/06/10 11:47:31;;;;;;;5.45;5.05;;;;;;;19.62;68.32;100527.03;5045705;27;103868;-72
2021/06/10 11:49:58;;;;;;;5.50;5.10;;;;;;;19.62;68.41;100510.47;5040964;27;102338;-72
2021/06/10 11:52:42;;;;;;;5.28;4.88;;;;;;;19.62;68.68;100515.16;5044709;27;102250;-72
2021/06/10 11:55:10;;;;;;;5.50;5.10;;;;;;;19.63;68.22;100514.03;5038082;27;103694;-72
2021/06/10 11:57:38;;;;;;;5.50;5.00;;;;;;;19.62;68.64;100515.16;5047919;27;102722;-72
2021/06/10 12:00:08;;;;;;;5.05;4.68;;;;;;;19.62;68.65;100512.38;5039421;27;102864;-74
2021/06/10 12:02:35;;;;;;;5.30;4.90;;;;;;;19.62;68.36;100499.41;5042906;27;102610;-72
2021/06/10 12:05:15;;;;;;;5.75;5.35;;;;;;;19.61;68.22;100513.50;5044082;27;102150;-72
2021/06/10 12:07:42;;;;;;;5.53;5.13;;;;;;;19.61;68.86;100511.56;5040634;27;103273;-72
2021/06/10 12:10:16;;;;;;;5.22;4.82;;;;;;;19.60;68.60;100512.72;5048105;27;102412;-72
2021/06/10 12:12:47;;;;;;;5.15;4.75;;;;;;;19.60;68.54;100512.72;5040316;27;102812;-72
2021/06/10 12:15:30;;;;;;;5.45;5.00;;;;;;;19.60;68.42;100511.91;5042968;27;102111;-72
2021/06/10 12:17:58;;;;;;;5.07;4.68;;;;;;;19.58;68.38;100501.22;5042847;27;103740;-72
2021/06/10 12:20:26;;;;;;;5.30;4.90;;;;;;;19.60;68.35;100509.16;5045255;27;102333;-72
2021/06/10 12:22:52;;;;;;;5.18;4.78;;;;;;;19.59;68.73;100508.34;5041759;27;102071;-72
2021/06/10 12:25:20;;;;;;;5.43;5.03;;;;;;;19.59;68.65;100507.53;5041515;27;102304;-72
2021/06/10 12:27:48;;;;;;;6.30;5.80;;;;;;;19.59;68.39;100511.09;5035011;27;103856;-72
2021/06/10 12:30:30;;;;;;;5.40;5.00;;;;;;;19.57;68.47;100502.34;5049060;27;102624;-72
2021/06/10 12:33:11;;;;;;;5.72;5.32;;;;;;;19.58;68.48;100514.19;5036215;27;102109;-72
2021/06/10 12:35:38;;;;;;;5.53;5.13;;;;;;;19.58;68.39;100503.97;5042840;27;103075;-71
2021/06/10 12:38:06;;;;;;;5.38;4.97;;;;;;;19.57;68.18;100502.34;5037123;27;102741;-72
2021/06/10 12:40:37;;;;;;;5.60;5.20;;;;;;;19.56;68.69;100506.25;5039418;27;102514;-72
2021/06/10 12:43:11;;;;;;;5.30;4.90;;;;;;;19.57;68.72;100496.00;5042949;27;103580;-72
2021/06/10 12:45:38;;;;;;;5.65;5.25;;;;;;;19.55;68.74;100501.88;5039290;27;102458;-72
2021/06/10 12:48:21;;;;;;;5.40;5.00;;;;;;;19.56;68.73;100505.44;5036935;27;103929;-72
2021/06/10 12:50:49;;;;;;;5.68;5.20;;;;;;;19.57;68.53;100509.81;5039807;27;104566;-72
2021/06/10 12:53:16;;;;;;;5.72;5.32;;;;;;;19.56;68.67;100519.25;5043224;27;102528;-73
2021/06/10 12:55:45;;;;;;;5.80;5.30;;;;;;;19.55;68.56;100509.34;5034265;27;102719;-72
2021/06/10 12:58:19;;;;;;;5.30;4.90;;;;;;;19.55;68.55;100501.88;5038539;27;103875;-72
2021/06/10 13:00:45;;;;;;;5.50;5.10;;;;;;;19.56;68.45;100505.44;5035916;27;102179;-72
2021/06/10 13:03:12;;;;;;;5.60;5.20;;;;;;;19.56;68.62;100511.78;5041079;27;102198;-72
2021/06/10 13:06:05;;;;;;;5.65;5.25;;;;;;;19.55;68.41;100501.88;5044026;27;102481;-72
2021/06/10 13:08:32;;;;;;;5.68;5.28;;;;;;;19.56;68.42;100499.94;5038412;27;104063;-72
2021/06/10 13:11:15;;;;;;;5.35;4.95;;;;;;;19.56;68.22;100508.22;5041529;27;103262;-72
2021/06/10 13:13:44;;;;;;;5.82;5.43;;;;;;;19.55;68.31;100498.31;5042436;27;102573;-72
2021/06/10 13:16:14;;;;;;;5.25;4.88;;;;;;;19.55;68.46;100493.59;5038833;27;102590;-71
2021/06/10 13:18:43;;;;;;;5.55;5.15;;;;;;;19.56;68.42;100486.13;5044793;27;103933;-72
2021/06/10 13:21:18;;;;;;;5.22;4.82;;;;;;;19.55;68.43;100490.84;5037365;27;102770;-72
2021/06/10 13:23:51;;;;;;;5.80;5.30;;;;;;;19.55;68.75;100495.56;5038944;27;102661;-72
2021/06/10 13:26:20;;;;;;;5.55;5.15;;;;;;;19.55;68.66;100499.13;5041778;27;102123;-72
2021/06/10 13:29:09;;;;;;;;;;;;;;;19.55;68.60;100493.59;5041872;27;104045;-72
2021/06/10 13:31:39;;;;;;;6.03;5.47;;;;;;;19.55;68.43;100492.81;5044005;27;102720;-72
2021/06/10 13:34:08;;;;;;;6.10;5.60;;;;;;;19.55;68.65;100504.66;5044034;27;102489;-72
2021/06/10 13:36:43;;;;;;;6.35;5.75;;;;;;;19.54;68.47;100496.69;5042413;27;102549;-74
2021/06/10 13:39:10;;;;;;;6.15;5.75;;;;;;;19.54;68.45;100496.69;5041116;27;103880;-71
2021/06/10 13:41:37;;;;;;;5.97;5.47;;;;;;;19.54;68.53;100499.44;5041329;27;102762;-72
2021/06/10 13:44:07;;;;;;;5.18;4.78;;;;;;;19.55;68.47;100501.09;5041749;27;102118;-72
2021/06/10 13:46:36;;;;;;;5.50;5.10;;;;;;;19.54;68.37;100502.19;5043114;27;102598;-72
2021/06/10 13:49:03;;;;;;;5.88;5.38;;;;;;;19.54;68.17;100508.53;5041511;27;104365;-72
2021/06/10 13:51:29;;;;;;;5.63;5.22;;;;;;;19.53;68.75;100509.69;5042616;27;102794;-72
2021/06/10 13:53:56;;;;;;;5.53;5.13;;;;;;;19.53;68.46;100522.69;5033971;27;104196;-72
2021/06/10 13:56:28;;;;;;;6.25;5.68;;;;;;;19.53;68.77;100517.16;5040367;27;102957;-71
2021/06/10 13:58:55;;;;;;;5.72;5.32;;;;;;;19.52;68.78;100510.03;5038734;27;105009;-72
2021/06/10 14:01:24;;;;;;;5.60;5.20;;;;;;;19.53;68.60;100506.13;5043758;27;102622;-72
2021/06/10 14:03:51;;;;;;;5.88;5.43;;;;;;;19.52;68.65;100515.56;5039731;27;103499;-72
2021/06/10 14:06:17;;;;;;;6.18;5.57;;;;;;;19.52;68.49;100513.59;5044614;27;102258;-72
2021/06/10 14:08:44;;;;;;;6.05;5.50;;;;;;;19.52;68.57;100504.50;5048132;27;103681;-72
2021/06/10 14:11:15;;;;;;;6.18;5.63;;;;;;;19.51;68.26;100509.22;5051541;27;102134;-72
2021/06/10 14:13:43;;;;;;;6.22;5.82;;;;;;;19.51;68.37;100498.19;5044734;27;103181;-70
2021/06/10 14:16:16;;;;;;;5.45;5.05;;;;;;;19.52;68.68;100504.50;5041532;27;102232;-72
2021/06/10 14:18:45;;;;;;;5.53;5.13;;;;;;;19.51;68.59;100497.34;5039594;27;104184;-72
2021/06/10 14:21:12;;;;;;;6.13;5.65;;;;;;;19.51;68.52;100498.19;5041991;27;103328;-72
2021/06/10 14:23:38;;;;;;;6.13;5.63;;;;;;;19.50;68.73;100501.25;5045059;27;102633;-72
2021/06/10 14:26:06;;;;;;;5.82;5.35;;;;;;;19.50;68.37;100501.25;5047112;27;102373;-73
2021/06/10 14:28:35;;;;;;;6.18;5.68;;;;;;;19.51;68.29;100500.09;5051151;27;103857;-72
2021/06/10 14:33:48;;;;;;;5.72;5.32;;;;;;;19.49;68.28;100488.63;5046545;27;102542;-72
2021/06/10 14:36:15;;;;;;;6.20;5.70;;;;;;;19.50;68.43;100487.47;5045716;27;103742;-72
2021/06/10 14:38:42;;;;;;;5.85;5.45;;;;;;;19.48;68.76;100479.53;5045625;27;104223;-72
2021/06/10 14:41:08;;;;;;;6.22;5.72;;;;;;;19.49;68.53;100496.91;5040936;27;102353;-72
2021/06/10 14:43:34;;;;;;;5.88;5.40;;;;;;;19.49;68.42;100494.13;5047696;27;102348;-72
2021/06/10 14:46:01;;;;;;;6.72;6.13;;;;;;;19.48;68.29;100493.34;5045183;27;102746;-72
2021/06/10 14:48:27;;;;;;;6.45;5.85;;;;;;;19.49;68.47;100505.19;5039212;27;104383;-72
2021/06/10 14:50:56;;;;;;;5.88;5.40;;;;;;;19.48;68.52;100493.34;5041386;27;102839;-72
2021/06/10 14:53:23;;;;;;;5.85;5.30;;;;;;;19.48;68.74;100506.31;5038009;27;102657;-72
2021/06/10 14:55:49;;;;;;;5.78;5.38;;;;;;;19.48;68.42;100506.31;5047404;27;103627;-72
2021/06/10 14:58:16;;;;;;;6.10;5.60;;;;;;;19.48;68.47;100506.31;5042030;27;103730;-72
2021/06/10 15:00:43;;;;;;;6.20;5.60;;;;;;;19.47;68.55;100496.41;5043567;27;103519;-72
2021/06/10 15:03:09;;;;;;;5.95;5.30;;;;;;;19.47;68.37;100505.50;5043695;27;102188;-72
2021/06/10 15:05:36;;;;;;;6.13;5.53;;;;;;;19.46;67.98;100501.13;5042135;27;102401;-72
2021/06/10 15:08:04;;;;;;;6.10;5.60;;;;;;;19.46;68.25;100512.16;5044366;27;103840;-72
2021/06/10 15:10:31;;;;;;;5.80;5.30;;;;;;;19.45;68.41;100505.84;5036932;27;102591;-72
2021/06/10 15:12:58;;;;;;;5.30;4.80;;;;;;;19.46;68.10;100517.69;5031060;27;104747;-72
2021/06/10 15:15:25;;;;;;;5.75;5.32;;;;;;;19.45;68.52;100516.88;5034928;27;102279;-72
2021/06/10 15:17:52;;;;;;;5.82;5.43;;;;;;;19.47;68.44;100524.00;5037617;27;104203;-71
2021/06/10 15:20:18;;;;;;;5.95;5.45;;;;;;;19.45;68.37;100511.38;5042154;27;102061;-71
2021/06/10 15:22:45;;;;;;;6.20;5.70;;;;;;;19.46;68.03;100520.44;5039151;27;102036;-72
2021/06/10 15:25:13;;;;;;;6.43;5.93;;;;;;;19.45;68.44;100521.59;5048952;27;102122;-72
2021/06/10 15:27:40;;;;;;;5.97;5.53;;;;;;;19.45;68.27;100516.88;5044277;27;103932;-72
2021/06/10 17:05:52;;;;;;;5.35;4.95;;;;;;;19.38;68.49;100571.00;5095174;27;102539;-71
2021/06/10 17:08:18;;;;;;;5.47;5.07;;;;;;;19.37;68.56;100556.41;5075968;27;102156;-72
2021/06/10 17:10:45;;;;;;;5.50;5.10;;;;;;;19.38;68.22;100563.53;5075723;27;103870;-71
2021/06/10 17:13:12;;;;;;;5.57;5.13;;;;;;;19.38;68.08;100558.00;5074272;27;102588;-72
2021/06/10 17:15:47;;;;;;;5.35;4.95;;;;;;;19.39;68.58;100550.53;5071086;27;102755;-72
2021/06/10 17:18:14;;;;;;;5.82;5.38;;;;;;;19.38;68.19;100551.69;5070390;27;102660;-71
2021/06/10 17:20:41;;;;;;;5.60;5.15;;;;;;;19.38;68.58;100552.47;5070227;27;106503;-71
2021/06/10 17:23:09;;;;;;;5.40;4.97;;;;;;;19.39;68.16;100551.34;5076738;27;102096;-71
2021/06/10 17:25:36;;;;;;;5.05;4.70;;;;;;;19.38;68.59;100555.25;5080872;27;101970;-72
2021/06/10 17:28:03;;;;;;;5.00;4.60;;;;;;;19.38;68.51;100548.91;5075866;27;102368;-71
2021/06/10 17:30:30;;;;;;;5.07;4.72;;;;;;;19.38;68.49;100558.00;5076371;27;103910;-72
2021/06/10 17:32:56;;;;;;;5.30;4.90;;;;;;;19.37;68.33;100552.84;5075564;27;102529;-72
2021/06/10 17:35:23;;;;;;;6.28;5.68;;;;;;;19.37;68.30;100553.63;5077095;27;102068;-72
2021/06/10 17:37:50;;;;;;;5.50;5.10;;;;;;;19.37;68.49;100559.16;5076929;27;102244;-72
2021/06/10 17:40:18;;;;;;;5.10;4.70;;;;;;;19.38;68.07;100554.44;5076692;27;103931;-73
2021/06/10 17:42:45;;;;;;;5.37;4.97;;;;;;;19.37;68.09;100559.16;5080902;27;102584;-72
2021/06/10 17:45:12;;;;;;;5.20;4.80;;;;;;;19.37;68.35;100567.44;5075232;27;102645;-72
2021/06/10 17:47:40;;;;;;;5.10;4.70;;;;;;;19.38;68.20;100565.47;5070804;27;102470;-72
2021/06/10 17:50:08;;;;;;;4.95;4.55;;;;;;;19.37;68.19;100572.94;5069840;27;103836;-72
2021/06/10 17:52:35;;;;;;;5.15;4.75;;;;;;;19.37;68.24;100581.22;5073665;27;102401;-72
2021/06/10 17:55:03;;;;;;;5.50;5.05;;;;;;;19.37;68.50;100586.75;5063439;27;102519;-72
2021/06/10 17:57:31;;;;;;;4.50;4.20;;;;;;;19.36;68.40;100587.88;5059316;27;103786;-71
2021/06/10 17:59:58;;;;;;;4.90;4.40;;;;;;;19.37;68.01;100589.50;5057621;27;103936;-72
2021/06/10 18:02:24;;;;;;;5.10;4.70;;;;;;;19.36;68.55;100601.66;5051930;27;102052;-72
2021/06/10 18:04:51;;;;;;;5.07;4.68;;;;;;;19.36;68.08;100596.16;5057086;27;105358;-72
2021/06/10 18:07:17;;;;;;;5.53;5.13;;;;;;;19.36;68.45;100601.66;5050032;27;103397;-72
2021/06/10 18:09:44;;;;;;;5.47;5.05;;;;;;;19.36;68.31;100604.44;5047275;27;103884;-72
2021/06/10 18:12:11;;;;;;;5.18;4.60;;;;;;;19.37;68.60;100608.81;5052818;27;101977;-72
2021/06/10 18:14:39;;;;;;;4.90;4.50;;;;;;;19.36;68.19;100604.44;5048370;27;102396;-72
2021/06/10 18:17:05;;;;;;;4.93;4.53;;;;;;;19.37;68.20;100608.81;5051368;27;102613;-72
2021/06/10 18:19:34;;;;;;;4.40;4.10;;;;;;;19.37;68.56;100608.81;5050001;27;104175;-73
2021/06/10 18:22:01;;;;;;;4.68;4.38;;;;;;;19.39;68.53;100611.25;5055498;27;102340;-73
2021/06/10 18:24:28;;;;;;;4.30;4.00;;;;;;;19.38;68.56;100604.91;5048963;27;102404;-71
2021/06/10 18:26:54;;;;;;;4.40;4.10;;;;;;;19.39;68.64;100603.75;5053586;27;102869;-73
2021/06/10 18:29:21;;;;;;;4.38;4.07;;;;;;;19.40;68.32;100612.84;5048636;27;103918;-72
2021/06/10 18:31:49;;;;;;;4.63;4.22;;;;;;;19.39;68.21;100617.56;5053486;27;105166;-73
2021/06/10 18:34:16;;;;;;;4.25;3.95;;;;;;;19.40;68.57;100623.88;5053506;27;102631;-72
2021/06/10 18:36:42;;;;;;;5.10;4.40;;;;;;;19.39;68.63;100625.84;5048392;27;102392;-72
2021/06/10 18:39:09;;;;;;;4.45;4.07;;;;;;;19.41;68.42;100620.00;5044694;27;103914;-73
2021/06/10 18:41:37;;;;;;;4.55;4.25;;;;;;;19.40;68.30;100621.97;5050072;27;102538;-73
2021/06/10 18:44:05;;;;;;;4.50;4.20;;;;;;;19.40;68.39;100624.72;5048269;27;102608;-73
2021/06/10 18:46:32;;;;;;;4.40;4.10;;;;;;;19.40;68.54;100630.25;5049445;27;102968;-73
2021/06/10 18:49:00;;;;;;;4.03;3.72;;;;;;;19.40;68.65;100629.41;5047414;27;102794;-72
2021/06/10 18:51:30;;;;;;;4.47;4.10;;;;;;;19.40;68.64;100635.75;5050376;27;103500;-72
2021/06/10 18:53:57;;;;;;;5.53;4.28;;;;;;;19.40;68.27;100638.53;5048424;27;102155;-72
2021/06/10 18:56:23;;;;;;;4.57;4.18;;;;;;;19.40;68.40;100645.97;5051888;27;102563;-72
2021/06/10 18:58:51;;;;;;;4.15;3.85;;;;;;;19.39;68.22;100645.16;5046537;27;103927;-72
2021/06/10 19:01:18;;;;;;;4.47;4.07;;;;;;;19.39;68.17;100639.63;5052128;27;102287;-73
2021/06/10 19:03:44;;;;;;;4.70;4.30;;;;;;;19.39;68.42;100645.16;5042932;27;102172;-72
2021/06/10 19:06:13;;;;;;;4.45;4.05;;;;;;;19.39;68.44;100649.88;5035860;27;102535;-72
2021/06/10 19:08:40;;;;;;;4.50;4.20;;;;;;;19.39;67.97;100650.69;5045237;27;103041;-72
2021/06/10 19:11:07;;;;;;;5.05;3.97;;;;;;;19.37;68.13;100641.94;5042167;27;102554;-72
2021/06/10 19:13:34;;;;;;;5.32;4.18;;;;;;;19.37;67.97;100636.41;5042712;27;102524;-73
2021/06/10 19:16:01;;;;;;;4.93;4.15;;;;;;;19.39;68.08;100633.31;5050649;27;102231;-72
2021/06/10 19:18:27;;;;;;;4.35;4.05;;;;;;;19.37;68.41;100630.91;5050594;27;106758;-72
2021/06/10 19:20:54;;;;;;;4.05;3.75;;;;;;;19.36;68.40;100634.78;5045168;27;102611;-72
2021/06/10 19:23:22;;;;;;;8.63;4.10;;;;;;;19.37;68.46;100641.13;5041245;27;102646;-72
2021/06/10 19:25:49;;;;;;;4.38;4.03;;;;;;;19.36;68.04;100634.78;5040640;27;102466;-71
2021/06/10 19:28:15;;;;;;;4.45;3.83;;;;;;;19.36;68.47;100623.75;5036679;27;103893;-73
2021/06/10 19:30:46;;;;;;;4.13;3.75;;;;;;;19.35;68.33;100630.41;5040333;27;102065;-72
2021/06/10 19:33:22;;;;;;;4.90;4.45;;;;;;;19.35;68.55;100627.66;5043095;27;103224;-72
2021/06/10 19:35:48;;;;;;;4.07;3.72;;;;;;;19.34;68.29;100626.03;5044219;27;102472;-72
2021/06/10 19:38:17;;;;;;;4.68;4.20;;;;;;;19.35;68.01;100633.16;5046140;27;104047;-72
2021/06/10 19:40:45;;;;;;;4.85;4.38;;;;;;;19.34;68.05;100637.06;5041347;27;102384;-72
2021/06/10 19:43:12;;;;;;;5.03;4.63;;;;;;;19.34;68.18;100634.31;5038852;27;102824;-73
2021/06/10 19:45:44;;;;;;;5.38;4.35;;;;;;;19.34;68.32;100631.56;5038982;27;102566;-73
2021/06/10 19:48:11;;;;;;;4.53;4.10;;;;;;;19.34;67.81;100634.31;5040174;27;103883;-73
2021/06/10 19:50:39;;;;;;;4.77;4.37;;;;;;;19.34;68.04;100630.75;5040268;27;102565;-72
2021/06/10 19:53:06;;;;;;;5.10;4.70;;;;;;;19.33;67.89;100632.72;5044753;27;102326;-72
2021/06/10 19:55:32;;;;;;;4.90;4.50;;;;;;;19.34;68.34;100630.75;5040914;27;102525;-72
2021/06/10 19:58:01;;;;;;;5.18;4.78;;;;;;;19.33;68.09;100629.94;5040925;27;106398;-72
2021/06/10 20:00:29;;;;;;;5.68;5.18;;;;;;;19.33;68.14;100629.94;5042962;27;103556;-72
2021/06/10 20:02:57;;;;;;;6.17;5.00;;;;;;;19.33;67.91;100624.44;5039675;27;102703;-71
2021/06/10 20:05:24;;;;;;;6.32;4.90;;;;;;;19.32;68.26;100631.06;5049023;27;102212;-72
2021/06/10 20:07:51;;;;;;;6.10;5.35;;;;;;;19.31;67.77;100614.88;5041144;27;103792;-71
2021/06/10 20:10:18;;;;;;;5.55;5.05;;;;;;;19.31;68.11;100615.66;5047482;27;102117;-71
2021/06/10 20:12:44;;;;;;;7.65;5.90;;;;;;;19.32;68.23;100619.22;5046144;27;102420;-72
2021/06/10 20:15:14;;;;;;;5.50;4.68;;;;;;;19.31;68.16;100617.63;5045643;27;102485;-72
2021/06/10 20:17:40;;;;;;;4.30;4.00;;;;;;;19.31;68.27;100621.19;5047844;27;103416;-72
2021/06/10 20:20:09;;;;;;;5.07;4.57;;;;;;;19.30;67.79;100622.34;5049328;27;102463;-71
2021/06/10 20:22:37;;;;;;;4.90;4.40;;;;;;;19.28;67.86;100627.38;5056055;27;102022;-71
2021/06/10 20:25:06;;;;;;;4.85;4.28;;;;;;;19.30;68.06;100630.63;5058778;27;105234;-71
2021/06/10 20:32:46;;;;;;;4.82;4.43;;;;;;;19.27;68.14;100631.28;5042949;27;102096;-71
2021/06/10 20:35:13;;;;;;;4.30;3.97;;;;;;;19.27;67.88;100625.75;5051842;27;102315;-72
2021/06/10 20:37:41;;;;;;;5.32;4.70;;;;;;;19.27;67.65;100620.22;5051012;27;104035;-71
2021/06/10 20:40:10;;;;;;;5.22;4.53;;;;;;;19.27;67.68;100614.72;5050228;27;102924;-71
2021/06/10 20:42:37;;;;;;;6.30;4.63;;;;;;;19.27;67.58;100616.66;5049049;27;103290;-74
2021/06/10 20:45:05;;;;;;;5.40;4.38;;;;;;;19.26;68.05;100610.34;5049906;27;102342;-74
2021/06/10 20:47:32;;;;;;;6.50;4.43;;;;;;;19.25;67.72;100608.72;5049312;27;103945;-71
2021/06/10 20:50:00;;;;;;;5.18;4.55;;;;;;;19.26;68.09;100613.09;5052711;27;102598;-71
2021/06/10 20:52:26;;;;;;;4.80;4.27;;;;;;;19.26;67.61;100618.63;5047580;27;102275;-71
2021/06/10 20:54:55;;;;;;;4.82;4.15;;;;;;;19.26;67.63;100618.63;5051254;27;102493;-71
2021/06/10 20:57:21;;;;;;;;;;;;;;;19.26;67.94;100606.75;5050152;27;104077;-71
2021/06/10 20:59:48;;;;;;;5.03;4.63;;;;;;;19.26;67.70;100606.75;5049213;27;103317;-71
2021/06/10 21:02:14;;;;;;;4.90;4.47;;;;;;;19.25;68.00;100611.47;5058991;27;103494;-71
2021/06/10 21:04:41;;;;;;;6.55;4.43;;;;;;;19.25;68.05;100608.72;5050979;27;102215;-70
2021/06/10 21:07:09;;;;;;;4.43;4.03;;;;;;;19.24;67.71;100615.38;5048651;27;104871;-72
2021/06/10 21:09:36;;;;;;;4.63;4.20;;;;;;;19.25;67.69;100605.94;5049258;27;102703;-71
2021/06/10 21:12:03;;;;;;;4.40;3.80;;;;;;;19.24;67.74;100609.84;5046172;27;102462;-71
2021/06/10 21:14:29;;;;;;;4.70;4.30;;;;;;;19.24;67.93;100615.38;5051138;27;102127;-71
2021/06/10 21:16:56;;;;;;;4.97;4.10;;;;;;;19.25;68.08;100618.94;5051508;27;104075;-72
2021/06/10 21:19:23;;;;;;;4.72;4.18;;;;;;;19.24;67.59;100615.38;5046782;27;102408;-71
2021/06/10 21:21:50;;;;;;;5.35;4.30;;;;;;;19.23;67.75;100608.25;5042971;27;103349;-71
2021/06/10 21:24:18;;;;;;;5.15;4.65;;;;;;;19.24;67.96;100609.84;5049507;27;102318;-71